DAL785 KATL-KSFO
Flight info
| Callsign | DAL785 |
|---|---|
| Flight time | N/A |
| Altitude | 28000 |
| Route | CUTTN2 HANKO MEM VLUST Q128 ZAROS/N0464F300 Q128 FLOOD J28 BDROC ELLMU HVE J28 MLF KITTN Q164 KATTS INYOE DYAMD5 |
| Aircraft | A21N/M-SDE2E3FGHIRWXY/LB1 |
Departure
| Time | 2026-05-04 21:49 |
|---|---|
| Airport | Hartsfield Jackson Atlanta International Airport (KATL) |
Arrival
| Time | N/A |
|---|---|
| Airport | San Francisco International Airport (KSFO) |
| Time | Latitude | Longitude | Altitude | Speed | Heading |
|---|---|---|---|---|---|
| 2026-05-04 21:19 | 33.64121 | -84.43974 | 1041 ft | 0 kts | 83° |
| 2026-05-04 21:36 | 33.64120 | -84.43979 | 1041 ft | 3 kts | 83° |
| 2026-05-04 21:36 | 33.64117 | -84.44011 | 1041 ft | 4 kts | 82° |
| 2026-05-04 21:36 | 33.64110 | -84.44037 | 1041 ft | 4 kts | 47° |
| 2026-05-04 21:36 | 33.64089 | -84.44051 | 1041 ft | 4 kts | 6° |
| 2026-05-04 21:37 | 33.64080 | -84.44051 | 1041 ft | 1 kts | 0° |
| 2026-05-04 21:40 | 33.64090 | -84.44051 | 1041 ft | 4 kts | 0° |
| 2026-05-04 21:40 | 33.64128 | -84.44051 | 1041 ft | 7 kts | 0° |
| 2026-05-04 21:41 | 33.64187 | -84.44051 | 1041 ft | 9 kts | 360° |
| 2026-05-04 21:41 | 33.64261 | -84.44051 | 1041 ft | 12 kts | 0° |
| 2026-05-04 21:41 | 33.64350 | -84.44050 | 1041 ft | 12 kts | 0° |
| 2026-05-04 21:41 | 33.64421 | -84.44018 | 1041 ft | 13 kts | 65° |
| 2026-05-04 21:42 | 33.64438 | -84.43907 | 1041 ft | 14 kts | 81° |
| 2026-05-04 21:42 | 33.64452 | -84.43782 | 1041 ft | 16 kts | 83° |
| 2026-05-04 21:42 | 33.64460 | -84.43643 | 1041 ft | 17 kts | 90° |
| 2026-05-04 21:42 | 33.64460 | -84.43491 | 1041 ft | 19 kts | 89° |
| 2026-05-04 21:43 | 33.64461 | -84.43330 | 1041 ft | 20 kts | 90° |
| 2026-05-04 21:43 | 33.64461 | -84.43156 | 1041 ft | 21 kts | 90° |
| 2026-05-04 21:43 | 33.64461 | -84.42972 | 1041 ft | 23 kts | 90° |
| 2026-05-04 21:43 | 33.64461 | -84.42786 | 1041 ft | 21 kts | 88° |
| 2026-05-04 21:44 | 33.64471 | -84.42602 | 1041 ft | 23 kts | 92° |
| 2026-05-04 21:44 | 33.64469 | -84.42421 | 1040 ft | 21 kts | 89° |
| 2026-05-04 21:44 | 33.64476 | -84.42259 | 1041 ft | 20 kts | 71° |
| 2026-05-04 21:44 | 33.64540 | -84.42107 | 1040 ft | 21 kts | 79° |
| 2026-05-04 21:45 | 33.64542 | -84.41938 | 1041 ft | 21 kts | 91° |
| 2026-05-04 21:45 | 33.64542 | -84.41760 | 1041 ft | 22 kts | 90° |
| 2026-05-04 21:45 | 33.64542 | -84.41571 | 1041 ft | 23 kts | 89° |
| 2026-05-04 21:45 | 33.64544 | -84.41372 | 1041 ft | 24 kts | 90° |
| 2026-05-04 21:46 | 33.64544 | -84.41196 | 1041 ft | 20 kts | 90° |
| 2026-05-04 21:46 | 33.64543 | -84.41025 | 1041 ft | 21 kts | 90° |
| 2026-05-04 21:46 | 33.64544 | -84.40867 | 1040 ft | 17 kts | 86° |
| 2026-05-04 21:46 | 33.64572 | -84.40726 | 1040 ft | 18 kts | 89° |
| 2026-05-04 21:47 | 33.64573 | -84.40619 | 1040 ft | 7 kts | 79° |
| 2026-05-04 21:47 | 33.64610 | -84.40577 | 1039 ft | 8 kts | 14° |
| 2026-05-04 21:47 | 33.64669 | -84.40592 | 1038 ft | 10 kts | 308° |
| 2026-05-04 21:47 | 33.64679 | -84.40657 | 1038 ft | 5 kts | 268° |
| 2026-05-04 21:48 | 33.64677 | -84.40859 | 1040 ft | 58 kts | 270° |
| 2026-05-04 21:48 | 33.64676 | -84.41633 | 1042 ft | 124 kts | 270° |
| 2026-05-04 21:48 | 33.64680 | -84.42860 | 1048 ft | 166 kts | 268° |
| 2026-05-04 21:48 | 33.64707 | -84.44245 | 1608 ft | 163 kts | 268° |
| 2026-05-04 21:49 | 33.64696 | -84.45167 | 1949 ft | 171 kts | 264° |
| 2026-05-04 21:49 | 33.64673 | -84.46600 | 2451 ft | 181 kts | 272° |
| 2026-05-04 21:49 | 33.65133 | -84.48676 | 3038 ft | 208 kts | 287° |
| 2026-05-04 21:49 | 33.65549 | -84.50401 | 3541 ft | 225 kts | 280° |
| 2026-05-04 21:50 | 33.65881 | -84.52367 | 3872 ft | 255 kts | 279° |
| 2026-05-04 21:50 | 33.66137 | -84.53809 | 4269 ft | 264 kts | 281° |
| 2026-05-04 21:50 | 33.66546 | -84.55945 | 5144 ft | 267 kts | 281° |
| 2026-05-04 21:50 | 33.66965 | -84.58132 | 6022 ft | 271 kts | 280° |
| 2026-05-04 21:51 | 33.67362 | -84.60353 | 6880 ft | 273 kts | 278° |
| 2026-05-04 21:51 | 33.67737 | -84.62603 | 7690 ft | 276 kts | 279° |
| 2026-05-04 21:51 | 33.68117 | -84.64877 | 8523 ft | 280 kts | 279° |
| 2026-05-04 21:51 | 33.68502 | -84.67184 | 9345 ft | 283 kts | 279° |
| 2026-05-04 21:52 | 33.68893 | -84.69510 | 10142 ft | 286 kts | 278° |
| 2026-05-04 21:52 | 33.69439 | -84.72777 | 10641 ft | 311 kts | 279° |
| 2026-05-04 21:52 | 33.69727 | -84.74504 | 10824 ft | 325 kts | 279° |
| 2026-05-04 21:52 | 33.70293 | -84.77224 | 11082 ft | 346 kts | 284° |
| 2026-05-04 21:53 | 33.71037 | -84.80025 | 11347 ft | 365 kts | 286° |
| 2026-05-04 21:53 | 33.71851 | -84.82992 | 11595 ft | 383 kts | 286° |
| 2026-05-04 21:53 | 33.72697 | -84.86093 | 11913 ft | 395 kts | 286° |
| 2026-05-04 21:53 | 33.73553 | -84.89260 | 12441 ft | 401 kts | 286° |
| 2026-05-04 21:54 | 33.74413 | -84.92460 | 13024 ft | 404 kts | 286° |
| 2026-05-04 21:54 | 33.75286 | -84.95683 | 13620 ft | 407 kts | 287° |
| 2026-05-04 21:54 | 33.76164 | -84.98926 | 14172 ft | 410 kts | 287° |
| 2026-05-04 21:54 | 33.77043 | -85.02199 | 14717 ft | 412 kts | 287° |
| 2026-05-04 21:55 | 33.77913 | -85.05439 | 15347 ft | 415 kts | 286° |
| 2026-05-04 21:55 | 33.78802 | -85.08754 | 15993 ft | 417 kts | 286° |
| 2026-05-04 21:55 | 33.79693 | -85.12080 | 16605 ft | 419 kts | 286° |
| 2026-05-04 21:55 | 33.80591 | -85.15435 | 17205 ft | 421 kts | 285° |
| 2026-05-04 21:56 | 33.81462 | -85.18808 | 17779 ft | 423 kts | 283° |
| 2026-05-04 21:56 | 33.82016 | -85.22283 | 18323 ft | 423 kts | 273° |
| 2026-05-04 21:56 | 33.82184 | -85.25813 | 18804 ft | 425 kts | 271° |
| 2026-05-04 21:56 | 33.82296 | -85.29374 | 19282 ft | 427 kts | 271° |
| 2026-05-04 21:57 | 33.82419 | -85.32925 | 19779 ft | 429 kts | 271° |
| 2026-05-04 21:57 | 33.82567 | -85.36514 | 20259 ft | 430 kts | 272° |